Time;durP1;ratioP1;P1;durP2;ratioP2;P2;SDS_P1;SDS_P2;PMS_P1;PMS_P2;Temp;Humidity;BMP_temperature;BMP_pressure;BME280_temperature;BME280_humidity;BME280_pressure;Samples;Min_cycle;Max_cycle;Signal;HPM_P1;HPM_P2
2021/12/19 00:01:16;;;;;;;9.43;5.67;;;7.80;98.30;;;;;;4135209;28;20466;-83
2021/12/19 00:03:35;;;;;;;12.57;6.67;;;7.80;98.30;;;;;;4137513;28;20593;-81
2021/12/19 00:08:36;;;;;;;12.20;7.27;;;7.80;98.30;;;;;;4138551;28;21012;-81
2021/12/19 00:10:39;;;;;;;12.20;7.53;;;7.80;98.30;;;;;;4134702;28;20487;-81
2021/12/19 00:12:42;;;;;;;20.97;8.30;;;7.80;98.30;;;;;;4135147;28;20467;-81
2021/12/19 00:14:45;;;;;;;13.73;7.97;;;7.70;98.30;;;;;;4138715;28;20475;-81
2021/12/19 00:16:48;;;;;;;17.83;7.80;;;7.80;98.30;;;;;;4135454;28;20534;-81
2021/12/19 00:18:52;;;;;;;17.50;7.47;;;7.80;98.30;;;;;;4137702;28;20505;-81
2021/12/19 00:20:55;;;;;;;11.73;7.30;;;7.80;98.30;;;;;;4137970;28;20475;-81
2021/12/19 00:23:17;;;;;;;10.50;7.63;;;7.80;98.30;;;;;;4135376;28;20486;-81
2021/12/19 00:25:20;;;;;;;11.83;7.13;;;7.80;98.30;;;;;;4138033;28;20475;-82
2021/12/19 00:27:22;;;;;;;14.43;8.30;;;7.70;98.30;;;;;;4134339;28;20468;-81
2021/12/19 00:29:25;;;;;;;20.83;8.83;;;7.70;98.30;;;;;;4133010;28;20471;-81
2021/12/19 00:31:28;;;;;;;18.23;9.00;;;7.70;98.30;;;;;;4138610;28;20478;-81
2021/12/19 00:33:31;;;;;;;19.00;8.03;;;7.70;98.30;;;;;;4139340;28;20693;-81
2021/12/19 00:35:34;;;;;;;15.33;9.47;;;7.60;98.30;;;;;;4139661;28;21152;-81
2021/12/19 00:37:39;;;;;;;18.93;8.77;;;7.60;98.30;;;;;;4136940;28;21004;-81
2021/12/19 00:39:43;;;;;;;13.50;7.70;;;7.70;98.30;;;;;;4136848;28;20467;-82
2021/12/19 00:41:52;;;;;;;15.63;7.53;;;7.70;98.30;;;;;;4135153;28;20542;-82
2021/12/19 00:44:05;;;;;;;27.53;7.77;;;7.70;98.30;;;;;;4138212;28;20503;-80
2021/12/19 00:46:08;;;;;;;19.50;8.60;;;7.70;98.30;;;;;;4141209;28;20478;-81
2021/12/19 00:48:11;;;;;;;18.63;9.40;;;7.80;98.30;;;;;;4140819;28;20487;-80
2021/12/19 00:50:15;;;;;;;19.83;8.60;;;7.80;98.30;;;;;;4138686;28;20490;-82
2021/12/19 00:52:18;;;;;;;20.33;9.47;;;7.80;98.30;;;;;;4141429;28;20479;-82
2021/12/19 00:54:21;;;;;;;21.43;8.10;;;7.80;98.30;;;;;;4137484;28;20465;-82
2021/12/19 00:56:26;;;;;;;23.67;10.47;;;7.80;98.30;;;;;;4132820;28;20545;-81
2021/12/19 00:58:29;;;;;;;24.13;10.57;;;7.80;98.30;;;;;;4142152;28;20489;-81
2021/12/19 01:00:34;;;;;;;14.77;8.07;;;7.80;98.30;;;;;;4137321;28;20471;-82
2021/12/19 01:02:37;;;;;;;14.57;8.40;;;7.80;98.30;;;;;;4135562;28;20476;-82
2021/12/19 01:04:40;;;;;;;14.63;7.67;;;7.80;98.30;;;;;;4137039;28;20510;-81
2021/12/19 01:06:45;;;;;;;23.70;10.07;;;7.80;98.30;;;;;;4136054;28;20481;-81
2021/12/19 01:08:49;;;;;;;21.50;9.40;;;7.90;98.30;;;;;;4138744;28;20492;-82
2021/12/19 01:10:55;;;;;;;14.73;8.40;;;7.80;98.30;;;;;;4135863;28;20477;-81
2021/12/19 01:13:01;;;;;;;12.83;9.23;;;7.90;98.30;;;;;;4132620;28;21036;-82
2021/12/19 01:15:05;;;;;;;17.77;8.90;;;7.80;98.30;;;;;;4131157;28;21360;-81
2021/12/19 01:17:08;;;;;;;22.90;9.13;;;7.80;98.30;;;;;;4133801;28;20475;-81
2021/12/19 01:19:11;;;;;;;18.20;10.77;;;7.80;98.30;;;;;;4137174;28;20468;-82
2021/12/19 01:21:14;;;;;;;23.00;7.90;;;7.80;98.30;;;;;;4138257;28;20478;-81
2021/12/19 01:23:17;;;;;;;17.10;9.57;;;7.80;98.30;;;;;;4137468;28;20529;-82
2021/12/19 01:25:21;;;;;;;14.90;8.93;;;7.80;98.30;;;;;;4137572;28;20545;-81
2021/12/19 01:27:24;;;;;;;18.23;8.93;;;7.80;98.30;;;;;;4137920;28;21012;-82
2021/12/19 01:29:28;;;;;;;18.80;9.37;;;7.80;98.30;;;;;;4135164;28;20476;-82
2021/12/19 01:31:31;;;;;;;23.07;8.50;;;7.80;98.30;;;;;;4136143;28;20834;-81
2021/12/19 01:33:34;;;;;;;16.80;6.90;;;7.80;98.30;;;;;;4134267;28;20475;-82
2021/12/19 01:35:37;;;;;;;15.80;7.20;;;7.80;98.30;;;;;;4138566;28;20476;-81
2021/12/19 01:37:40;;;;;;;16.43;7.50;;;7.80;98.30;;;;;;4136822;28;20506;-81
2021/12/19 01:39:43;;;;;;;14.10;6.83;;;7.90;98.30;;;;;;4138707;28;21025;-82
2021/12/19 01:42:00;;;;;;;15.60;8.17;;;7.80;98.30;;;;;;4135324;28;20472;-81
2021/12/19 01:44:03;;;;;;;24.63;7.80;;;7.80;98.30;;;;;;4135816;28;20479;-81
2021/12/19 01:46:07;;;;;;;9.33;6.80;;;7.90;98.30;;;;;;4137407;28;20538;-81
2021/12/19 01:48:12;;;;;;;16.00;6.70;;;7.90;98.30;;;;;;4139535;28;20492;-81
2021/12/19 01:50:15;;;;;;;12.53;6.87;;;7.80;98.30;;;;;;4140958;28;20477;-82
2021/12/19 01:52:19;;;;;;;17.57;8.10;;;7.80;98.30;;;;;;4139408;28;20471;-82
2021/12/19 01:54:22;;;;;;;11.07;6.67;;;7.90;98.30;;;;;;4138850;28;20465;-81
2021/12/19 01:56:25;;;;;;;12.03;6.97;;;7.90;98.30;;;;;;4140104;28;20476;-81
2021/12/19 01:58:28;;;;;;;12.33;7.43;;;7.90;98.30;;;;;;4140779;28;20518;-82
2021/12/19 02:00:34;;;;;;;15.70;7.40;;;7.90;98.30;;;;;;4138799;28;20902;-82
2021/12/19 02:02:38;;;;;;;15.03;7.23;;;7.80;98.30;;;;;;4142564;28;20468;-81
2021/12/19 02:04:42;;;;;;;15.60;7.53;;;7.80;98.30;;;;;;4136571;28;20835;-82
2021/12/19 02:06:45;;;;;;;20.93;7.20;;;7.80;98.30;;;;;;4136797;28;20482;-81
2021/12/19 02:08:50;;;;;;;17.60;7.60;;;7.80;98.30;;;;;;4135673;28;20524;-80
2021/12/19 02:10:53;;;;;;;16.90;7.13;;;7.80;98.30;;;;;;4137370;28;20958;-81
2021/12/19 02:12:58;;;;;;;14.70;7.80;;;7.90;98.30;;;;;;4137858;28;21025;-82
2021/12/19 02:15:01;;;;;;;11.80;6.17;;;7.90;98.30;;;;;;4137060;28;21203;-82
2021/12/19 02:17:05;;;;;;;15.23;7.00;;;7.90;98.30;;;;;;4135762;28;20472;-82
2021/12/19 02:19:10;;;;;;;17.10;6.83;;;7.90;98.30;;;;;;4136289;28;20570;-81
2021/12/19 02:21:16;;;;;;;17.37;7.50;;;7.90;98.30;;;;;;4131686;28;20472;-82
2021/12/19 02:23:20;;;;;;;16.20;7.00;;;7.90;98.30;;;;;;4131586;28;20965;-82
2021/12/19 02:25:22;;;;;;;12.73;6.50;;;7.90;98.30;;;;;;4129992;28;20957;-81
2021/12/19 02:27:29;;;;;;;17.30;7.50;;;7.90;98.30;;;;;;4124573;28;20488;-82
2021/12/19 02:29:32;;;;;;;17.60;8.00;;;7.90;98.30;;;;;;4128392;28;20880;-82
2021/12/19 02:31:35;;;;;;;19.17;7.47;;;7.90;98.30;;;;;;4131573;28;20465;-81
2021/12/19 02:33:42;;;;;;;20.37;6.97;;;7.90;98.30;;;;;;4131437;28;20479;-82
2021/12/19 02:35:52;;;;;;;15.10;6.87;;;7.90;98.30;;;;;;4123672;28;20476;-81
2021/12/19 02:48:08;;;;;;;15.10;6.70;;;7.90;98.30;;;;;;4131172;28;20474;-83
2021/12/19 02:49:56;;;;;;;14.00;7.97;;;7.90;98.30;;;;;;4131380;28;20481;-82
2021/12/19 02:52:00;;;;;;;18.27;9.00;;;7.90;98.30;;;;;;4125464;28;20471;-82
2021/12/19 02:54:06;;;;;;;21.63;8.80;;;7.90;98.30;;;;;;4131266;28;20471;-81
2021/12/19 02:56:11;;;;;;;13.83;8.57;;;7.90;98.30;;;;;;4131970;28;20471;-82
2021/12/19 02:58:14;;;;;;;17.87;8.30;;;7.90;98.30;;;;;;4131355;28;20484;-84
2021/12/19 03:00:22;;;;;;;12.93;8.10;;;7.90;98.30;;;;;;4131690;28;20956;-82
2021/12/19 03:02:25;;;;;;;18.60;9.00;;;7.90;98.30;;;;;;4127126;28;20622;-83
2021/12/19 03:04:28;;;;;;;14.87;7.23;;;7.90;98.30;;;;;;4133832;28;20491;-81
2021/12/19 03:06:32;;;;;;;18.07;7.70;;;7.90;98.30;;;;;;4131347;28;20479;-81
2021/12/19 03:08:41;;;;;;;18.70;8.70;;;7.90;98.30;;;;;;4130035;28;20531;-82
2021/12/19 03:11:20;;;;;;;13.20;7.40;;;7.90;98.30;;;;;;4124060;28;20961;-81
2021/12/19 03:13:32;;;;;;;14.63;6.90;;;8.00;98.30;;;;;;4130585;28;20487;-81
2021/12/19 03:17:57;;;;;;;8.57;5.37;;;7.90;98.30;;;;;;4130964;28;20506;-81
2021/12/19 03:20:05;;;;;;;8.17;4.80;;;7.90;98.30;;;;;;4124914;28;20480;-82
2021/12/19 03:22:08;;;;;;;9.83;5.00;;;7.90;98.30;;;;;;4130722;28;20494;-81
2021/12/19 03:24:11;;;;;;;8.63;5.03;;;7.90;98.30;;;;;;4130993;28;20502;-81
2021/12/19 03:26:15;;;;;;;8.87;5.37;;;8.00;98.30;;;;;;4131023;28;20970;-80
2021/12/19 03:28:18;;;;;;;11.30;5.80;;;7.90;98.30;;;;;;4130769;28;21051;-81
2021/12/19 03:30:21;;;;;;;18.37;7.17;;;7.90;98.30;;;;;;4130764;28;20479;-81
2021/12/19 03:32:25;;;;;;;11.27;7.07;;;7.90;98.30;;;;;;4130500;28;20479;-81
2021/12/19 03:34:28;;;;;;;11.43;6.97;;;7.90;98.30;;;;;;4129037;28;20976;-81
2021/12/19 03:36:31;;;;;;;19.53;7.70;;;7.90;98.30;;;;;;4128328;28;20507;-81
2021/12/19 03:38:39;;;;;;;12.13;6.93;;;7.90;98.30;;;;;;4126770;28;20497;-82
2021/12/19 03:40:51;;;;;;;18.03;8.17;;;7.90;98.30;;;;;;4131154;28;20953;-82
2021/12/19 03:42:55;;;;;;;10.63;5.90;;;7.90;98.30;;;;;;4130126;28;21077;-82
2021/12/19 03:44:58;;;;;;;8.70;5.10;;;7.90;98.30;;;;;;4126665;28;20494;-82
2021/12/19 03:47:01;;;;;;;6.47;5.43;;;7.90;98.30;;;;;;4129829;28;20468;-82
2021/12/19 03:49:05;;;;;;;15.53;4.53;;;7.90;98.30;;;;;;4126144;28;20497;-81
2021/12/19 03:51:08;;;;;;;8.00;4.20;;;7.90;98.30;;;;;;4130467;28;20483;-81
2021/12/19 03:53:12;;;;;;;7.30;3.97;;;7.80;98.30;;;;;;4125811;28;20486;-82
2021/12/19 03:55:15;;;;;;;5.67;4.20;;;7.80;98.30;;;;;;4129076;28;20471;-80
2021/12/19 03:57:18;;;;;;;9.00;4.30;;;7.80;98.30;;;;;;4130482;28;20527;-81
2021/12/19 03:59:22;;;;;;;10.07;4.50;;;7.80;98.30;;;;;;4125904;28;20476;-82
2021/12/19 04:01:25;;;;;;;5.87;3.93;;;7.80;98.30;;;;;;4127619;28;20479;-81
2021/12/19 04:03:29;;;;;;;7.83;3.93;;;7.80;98.30;;;;;;4125309;28;20471;-83
2021/12/19 04:05:33;;;;;;;11.10;4.27;;;7.80;98.30;;;;;;4128714;28;20498;-83
2021/12/19 04:07:36;;;;;;;6.73;5.07;;;7.80;98.30;;;;;;4133915;28;20513;-82
2021/12/19 04:09:38;;;;;;;11.33;4.60;;;7.80;98.30;;;;;;4124281;28;20530;-82
2021/12/19 04:11:41;;;;;;;8.60;4.30;;;7.80;98.30;;;;;;4126802;28;20484;-81
2021/12/19 04:13:44;;;;;;;5.03;4.03;;;7.80;98.30;;;;;;4130644;28;20490;-81
2021/12/19 04:15:49;;;;;;;8.10;4.37;;;7.80;98.30;;;;;;4130086;28;20471;-82
2021/12/19 04:17:52;;;;;;;6.03;4.10;;;7.80;98.30;;;;;;4130752;28;20473;-83
2021/12/19 04:19:55;;;;;;;8.03;4.13;;;7.70;98.30;;;;;;4128888;28;20964;-82
2021/12/19 04:21:59;;;;;;;4.30;3.70;;;7.70;98.30;;;;;;4130309;28;20891;-82
2021/12/19 04:24:02;;;;;;;5.77;4.40;;;7.70;98.30;;;;;;4130480;28;20471;-82
2021/12/19 04:26:05;;;;;;;7.07;4.43;;;7.70;98.30;;;;;;4130315;28;20492;-82
2021/12/19 04:28:08;;;;;;;7.13;4.40;;;7.80;98.30;;;;;;4130667;28;20491;-82
2021/12/19 04:30:15;;;;;;;6.40;3.83;;;7.70;98.30;;;;;;4129653;28;20474;-81
2021/12/19 04:32:24;;;;;;;5.17;3.80;;;7.70;98.30;;;;;;4132188;28;20471;-81
2021/12/19 04:34:27;;;;;;;9.37;4.30;;;7.70;98.30;;;;;;4132753;28;20489;-82
2021/12/19 04:36:35;;;;;;;4.70;3.30;;;7.70;98.30;;;;;;4132611;28;20469;-80
2021/12/19 04:41:47;;;;;;;5.33;2.80;;;7.70;98.30;;;;;;4133170;28;20462;-83
2021/12/19 04:51:13;;;;;;;5.00;2.60;;;7.70;98.30;;;;;;4107827;28;20479;-82
2021/12/19 04:53:28;;;;;;;5.43;3.10;;;7.70;98.30;;;;;;4132308;28;20459;-83
2021/12/19 04:56:02;;;;;;;8.50;3.10;;;7.80;98.30;;;;;;4134151;28;20463;-82
2021/12/19 04:58:20;;;;;;;5.87;3.50;;;7.80;98.30;;;;;;4133587;28;20854;-81
2021/12/19 05:00:33;;;;;;;13.43;4.40;;;7.80;98.30;;;;;;4123508;28;20480;-82
2021/12/19 05:02:47;;;;;;;6.53;3.30;;;7.80;98.30;;;;;;4126866;28;20467;-81
2021/12/19 05:05:19;;;;;;;4.50;2.97;;;7.80;98.30;;;;;;4132390;28;20477;-82
2021/12/19 05:14:34;;;;;;;8.30;3.60;;;7.80;98.30;;;;;;4133029;28;20476;-81
2021/12/19 05:16:41;;;;;;;3.60;2.67;;;7.80;98.30;;;;;;4131531;28;20483;-82
2021/12/19 05:18:46;;;;;;;6.80;3.77;;;7.90;98.30;;;;;;4132646;28;20835;-83
2021/12/19 05:20:55;;;;;;;12.17;4.10;;;7.80;98.30;;;;;;4132886;28;20475;-82
2021/12/19 05:23:04;;;;;;;8.40;4.07;;;7.90;98.30;;;;;;4133150;28;20537;-81
2021/12/19 05:25:14;;;;;;;5.20;3.73;;;7.80;98.30;;;;;;4133095;28;21063;-83
2021/12/19 05:27:17;;;;;;;5.03;3.20;;;7.80;98.30;;;;;;4120568;28;20522;-82
2021/12/19 05:29:20;;;;;;;7.80;3.70;;;7.80;98.30;;;;;;4132799;28;20475;-82
2021/12/19 05:31:23;;;;;;;10.93;3.40;;;7.90;98.30;;;;;;4132295;28;20526;-82
2021/12/19 05:33:26;;;;;;;5.07;3.80;;;7.90;98.30;;;;;;4132781;28;20835;-82
2021/12/19 05:35:49;;;;;;;7.80;4.57;;;7.90;98.30;;;;;;4132808;28;20987;-82
2021/12/19 05:45:13;;;;;;;7.80;4.00;;;7.90;98.30;;;;;;4132230;28;20570;-82
2021/12/19 05:47:19;;;;;;;11.83;3.83;;;7.90;98.30;;;;;;4130273;28;20511;-82
2021/12/19 05:49:22;;;;;;;4.60;3.30;;;7.90;98.30;;;;;;4126796;28;20488;-81
2021/12/19 05:51:25;;;;;;;10.50;3.80;;;8.00;98.30;;;;;;4123466;28;20471;-80
2021/12/19 05:53:29;;;;;;;7.10;3.60;;;8.00;98.30;;;;;;4124606;28;20472;-82
2021/12/19 05:55:32;;;;;;;14.07;4.80;;;8.00;98.30;;;;;;4125844;28;20527;-81
2021/12/19 05:57:35;;;;;;;8.50;4.00;;;8.00;98.30;;;;;;4127562;28;20541;-80
2021/12/19 05:59:38;;;;;;;10.10;4.10;;;8.00;98.30;;;;;;4131281;28;21169;-79
2021/12/19 06:01:42;;;;;;;6.80;3.67;;;8.00;98.30;;;;;;4121549;28;20474;-80
2021/12/19 06:03:45;;;;;;;7.63;4.30;;;8.00;98.30;;;;;;4131572;28;20534;-80
2021/12/19 06:05:48;;;;;;;20.53;4.80;;;8.10;98.30;;;;;;4132492;28;20475;-80
2021/12/19 06:07:51;;;;;;;11.13;3.20;;;8.00;98.30;;;;;;4124702;28;20496;-79
2021/12/19 06:09:56;;;;;;;7.97;4.00;;;8.00;98.30;;;;;;4132420;28;20491;-79
2021/12/19 06:11:59;;;;;;;8.10;3.33;;;8.00;98.30;;;;;;4123915;28;20472;-80
2021/12/19 06:14:02;;;;;;;14.77;4.67;;;8.00;98.30;;;;;;4122618;28;20465;-80
2021/12/19 06:16:07;;;;;;;14.33;7.07;;;8.00;98.30;;;;;;4130253;28;20468;-79
2021/12/19 06:18:10;;;;;;;14.67;7.00;;;8.00;98.30;;;;;;4131675;28;20503;-80
2021/12/19 06:20:14;;;;;;;20.30;7.20;;;8.10;98.30;;;;;;4131720;28;21059;-81
2021/12/19 06:22:17;;;;;;;7.10;3.13;;;8.00;98.30;;;;;;4121271;28;20572;-81
2021/12/19 06:24:20;;;;;;;16.33;3.90;;;8.10;98.30;;;;;;4126858;28;20475;-81
2021/12/19 06:26:24;;;;;;;6.73;3.87;;;8.10;98.30;;;;;;4124186;28;21127;-80
2021/12/19 06:28:28;;;;;;;7.93;3.93;;;8.10;98.30;;;;;;4130324;28;20579;-81
2021/12/19 06:30:31;;;;;;;6.97;3.30;;;8.10;98.30;;;;;;4130230;28;20477;-81
2021/12/19 06:32:33;;;;;;;7.03;3.30;;;8.10;98.30;;;;;;4124343;28;20474;-81
2021/12/19 06:34:37;;;;;;;7.90;2.90;;;8.00;98.30;;;;;;4124516;28;20973;-80
2021/12/19 06:36:40;;;;;;;17.70;3.80;;;8.10;98.30;;;;;;4123090;28;20467;-80
2021/12/19 06:38:43;;;;;;;11.17;3.60;;;8.10;98.30;;;;;;4129885;28;20503;-81
2021/12/19 06:40:46;;;;;;;30.43;13.73;;;8.00;98.30;;;;;;4131583;28;21020;-80
2021/12/19 06:42:51;;;;;;;21.77;9.77;;;8.10;98.30;;;;;;4128439;28;20525;-80
2021/12/19 06:44:54;;;;;;;24.93;12.53;;;8.10;98.30;;;;;;4126283;28;21031;-80
2021/12/19 06:46:57;;;;;;;10.70;3.50;;;8.20;98.30;;;;;;4128097;28;21077;-81
2021/12/19 06:49:00;;;;;;;7.93;3.70;;;8.10;98.30;;;;;;4128804;28;20510;-81
2021/12/19 06:51:03;;;;;;;6.87;3.50;;;8.10;98.30;;;;;;4130237;28;20475;-81
2021/12/19 06:53:06;;;;;;;7.40;3.23;;;8.10;98.30;;;;;;4123179;28;20534;-80
2021/12/19 06:55:11;;;;;;;8.53;3.40;;;8.10;98.30;;;;;;4123448;28;20479;-82
2021/12/19 06:57:14;;;;;;;9.03;3.67;;;8.00;98.30;;;;;;4129731;28;20471;-80
2021/12/19 06:59:18;;;;;;;9.80;3.37;;;8.10;98.30;;;;;;4128742;28;20498;-79
2021/12/19 07:01:21;;;;;;;19.53;10.17;;;8.10;98.30;;;;;;4131343;28;20530;-80
2021/12/19 07:03:24;;;;;;;19.13;8.17;;;8.10;98.30;;;;;;4131251;28;20488;-81
2021/12/19 07:05:27;;;;;;;7.90;3.70;;;8.00;98.30;;;;;;4131931;28;20467;-80
2021/12/19 07:07:30;;;;;;;14.70;3.40;;;8.10;98.30;;;;;;4131689;28;20493;-81
2021/12/19 07:09:33;;;;;;;6.80;3.27;;;8.10;98.30;;;;;;4131637;28;20479;-81
2021/12/19 07:11:36;;;;;;;10.73;3.80;;;8.10;98.30;;;;;;4131568;28;20482;-81
2021/12/19 07:13:39;;;;;;;10.50;3.17;;;8.10;98.30;;;;;;4131523;28;20478;-80
2021/12/19 07:15:43;;;;;;;6.73;2.80;;;8.10;98.30;;;;;;4129485;28;20476;-80
2021/12/19 07:17:46;;;;;;;6.87;3.40;;;8.10;98.30;;;;;;4131979;28;20492;-80
2021/12/19 07:19:50;;;;;;;5.90;2.47;;;8.10;98.30;;;;;;4129777;28;20835;-81
2021/12/19 07:21:53;;;;;;;7.27;3.13;;;8.10;98.30;;;;;;4131476;28;20995;-81
2021/12/19 07:23:56;;;;;;;9.27;3.60;;;8.10;98.30;;;;;;4131452;28;20480;-81
2021/12/19 07:26:01;;;;;;;9.60;3.13;;;8.10;98.30;;;;;;4131561;28;20447;-81
2021/12/19 07:28:05;;;;;;;8.60;3.70;;;8.10;98.30;;;;;;4131791;28;20507;-80
2021/12/19 07:30:09;;;;;;;8.67;3.27;;;8.20;98.30;;;;;;4129792;28;20538;-80
2021/12/19 07:32:13;;;;;;;7.93;3.00;;;8.10;98.30;;;;;;4130803;28;20525;-79
2021/12/19 07:34:15;;;;;;;6.23;2.70;;;8.20;98.30;;;;;;4131080;28;20467;-80
2021/12/19 07:36:19;;;;;;;8.43;3.03;;;8.20;98.30;;;;;;4131007;28;20962;-80
2021/12/19 07:38:28;;;;;;;7.77;3.10;;;8.20;98.30;;;;;;4127513;28;20487;-80
2021/12/19 07:40:36;;;;;;;11.27;3.30;;;8.20;98.30;;;;;;4127905;28;20466;-81
2021/12/19 07:42:38;;;;;;;12.43;3.53;;;8.20;98.30;;;;;;4125458;28;20538;-80
2021/12/19 07:44:45;;;;;;;13.63;3.60;;;8.20;98.30;;;;;;4125884;28;20575;-82
2021/12/19 07:46:49;;;;;;;8.83;3.40;;;8.20;98.30;;;;;;4130923;28;20850;-81
2021/12/19 07:48:53;;;;;;;6.83;3.00;;;8.20;98.30;;;;;;4130191;28;20496;-81
2021/12/19 07:50:56;;;;;;;6.67;3.20;;;8.20;98.30;;;;;;4119075;28;20977;-81
2021/12/19 07:53:01;;;;;;;14.37;3.73;;;8.20;98.30;;;;;;4125284;28;20490;-81
2021/12/19 07:55:05;;;;;;;8.50;3.40;;;8.20;98.30;;;;;;4126327;28;20479;-81
2021/12/19 07:57:10;;;;;;;10.20;3.43;;;8.20;98.30;;;;;;4117897;28;20473;-82
2021/12/19 07:59:13;;;;;;;10.90;2.63;;;8.20;98.30;;;;;;4129280;28;20475;-81
2021/12/19 08:01:16;;;;;;;10.50;3.43;;;8.20;98.30;;;;;;4126263;28;20501;-81
2021/12/19 08:03:19;;;;;;;8.77;3.60;;;8.30;98.30;;;;;;4122498;28;20480;-81
2021/12/19 08:05:24;;;;;;;13.43;4.33;;;8.20;98.30;;;;;;4131796;28;20485;-81
2021/12/19 08:07:27;;;;;;;15.03;5.30;;;8.20;98.30;;;;;;4133865;28;20503;-81
2021/12/19 08:09:39;;;;;;;11.23;3.00;;;8.20;98.30;;;;;;4135349;28;20480;-82
2021/12/19 08:11:40;;;;;;;10.40;4.07;;;8.30;98.30;;;;;;4140139;28;20503;-81
2021/12/19 08:13:43;;;;;;;7.87;2.90;;;8.30;98.30;;;;;;4140497;28;20548;-81
2021/12/19 08:15:46;;;;;;;6.40;3.07;;;8.20;98.30;;;;;;4139836;28;20486;-81
2021/12/19 08:17:54;;;;;;;6.60;2.90;;;8.20;98.30;;;;;;4144812;28;20483;-82
2021/12/19 08:19:58;;;;;;;9.77;3.50;;;8.20;98.30;;;;;;4141024;28;20534;-80
2021/12/19 08:22:02;;;;;;;9.20;4.20;;;8.30;98.30;;;;;;4131374;28;20472;-80
2021/12/19 08:24:10;;;;;;;10.33;3.93;;;8.30;98.30;;;;;;4143563;28;20479;-79
2021/12/19 08:26:13;;;;;;;13.10;3.70;;;8.20;98.30;;;;;;4138466;28;20534;-80
2021/12/19 08:28:16;;;;;;;6.77;3.97;;;8.30;98.30;;;;;;4139095;28;20517;-80
2021/12/19 08:30:20;;;;;;;9.17;3.00;;;8.40;98.30;;;;;;4142481;28;21149;-79
2021/12/19 08:32:24;;;;;;;9.90;3.40;;;8.30;98.30;;;;;;4141190;28;20463;-80
2021/12/19 08:34:28;;;;;;;10.10;3.13;;;8.30;98.30;;;;;;4137275;28;20472;-79
2021/12/19 08:36:31;;;;;;;6.03;3.10;;;8.30;98.30;;;;;;4141956;28;20555;-80
2021/12/19 08:38:35;;;;;;;6.60;3.70;;;8.20;98.30;;;;;;4135142;28;20544;-80
2021/12/19 08:40:38;;;;;;;11.93;3.27;;;8.20;98.30;;;;;;4135053;28;20468;-79
2021/12/19 08:42:41;;;;;;;8.50;3.13;;;8.30;98.30;;;;;;4138451;28;20474;-81
2021/12/19 08:44:44;;;;;;;9.97;3.27;;;8.30;98.30;;;;;;4134536;28;20481;-81
2021/12/19 08:46:47;;;;;;;13.17;3.23;;;8.30;98.30;;;;;;4139142;28;20461;-81
2021/12/19 08:48:50;;;;;;;10.80;3.13;;;8.40;98.30;;;;;;4140667;28;20490;-80
2021/12/19 08:50:53;;;;;;;8.10;3.07;;;8.40;98.30;;;;;;4139109;28;20546;-80
2021/12/19 08:52:56;;;;;;;6.63;3.07;;;8.30;98.30;;;;;;4135792;28;20476;-81
2021/12/19 08:55:01;;;;;;;11.80;4.70;;;8.40;98.30;;;;;;4134193;28;20510;-81
2021/12/19 08:57:05;;;;;;;11.23;3.37;;;8.40;98.30;;;;;;4139750;28;20468;-81
2021/12/19 08:59:08;;;;;;;10.53;3.37;;;8.40;98.30;;;;;;4135730;28;20484;-81
2021/12/19 09:01:11;;;;;;;7.03;3.00;;;8.40;98.30;;;;;;4135154;28;20476;-81
2021/12/19 09:03:15;;;;;;;13.70;3.30;;;8.40;98.30;;;;;;4138617;28;20478;-81
2021/12/19 09:05:19;;;;;;;12.80;3.40;;;8.40;98.30;;;;;;4134357;28;20472;-81
2021/12/19 09:07:21;;;;;;;10.73;3.20;;;8.40;98.30;;;;;;4138961;28;20467;-82
2021/12/19 09:09:25;;;;;;;8.50;3.13;;;8.40;98.30;;;;;;4134773;28;20497;-81
2021/12/19 09:11:29;;;;;;;10.93;3.43;;;8.40;98.30;;;;;;4137063;28;20962;-82
2021/12/19 09:13:33;;;;;;;11.80;3.47;;;8.40;98.30;;;;;;4131737;28;20466;-80
2021/12/19 09:15:36;;;;;;;9.77;2.83;;;8.50;98.30;;;;;;4137341;28;20477;-80
2021/12/19 09:17:39;;;;;;;6.07;2.70;;;8.50;98.30;;;;;;4134417;28;20495;-79
2021/12/19 09:19:42;;;;;;;6.87;2.80;;;8.50;98.30;;;;;;4141168;28;20848;-80
2021/12/19 09:21:45;;;;;;;14.13;4.30;;;8.40;98.30;;;;;;4142147;28;20474;-79
2021/12/19 09:23:48;;;;;;;10.47;3.23;;;8.50;98.30;;;;;;4142618;28;20469;-80
2021/12/19 09:25:51;;;;;;;16.47;3.53;;;8.50;98.30;;;;;;4142470;28;20503;-80
2021/12/19 09:27:55;;;;;;;10.50;3.27;;;8.50;98.30;;;;;;4142793;28;20497;-80
2021/12/19 09:29:58;;;;;;;8.20;3.10;;;8.50;98.30;;;;;;4138923;28;20465;-80
2021/12/19 09:32:01;;;;;;;12.60;3.37;;;8.50;98.30;;;;;;4141024;28;20839;-80
2021/12/19 09:34:06;;;;;;;12.43;3.70;;;8.50;98.30;;;;;;4138291;28;20480;-80
2021/12/19 09:36:09;;;;;;;10.30;3.93;;;8.50;98.30;;;;;;4138519;28;20474;-80
2021/12/19 09:38:13;;;;;;;7.77;3.40;;;8.50;98.30;;;;;;4140591;28;20494;-80
2021/12/19 09:40:21;;;;;;;5.27;2.97;;;8.60;98.30;;;;;;4138951;28;20471;-80
2021/12/19 09:42:33;;;;;;;5.97;3.37;;;8.60;98.30;;;;;;4138776;28;20900;-80
2021/12/19 09:44:39;;;;;;;9.70;3.23;;;8.60;98.30;;;;;;4132420;28;20533;-80
2021/12/19 09:46:44;;;;;;;11.37;3.77;;;8.60;98.30;;;;;;4140901;28;20485;-80
2021/12/19 09:48:49;;;;;;;9.90;3.70;;;8.60;98.30;;;;;;4139341;28;20504;-80
2021/12/19 09:50:52;;;;;;;6.83;2.73;;;8.70;98.30;;;;;;4137646;28;20467;-80
2021/12/19 09:52:55;;;;;;;10.87;3.30;;;8.60;98.30;;;;;;4139649;28;20972;-80
2021/12/19 09:54:58;;;;;;;10.10;3.70;;;8.60;98.30;;;;;;4138953;28;20469;-80
2021/12/19 09:57:00;;;;;;;7.33;3.03;;;8.60;98.30;;;;;;4140285;28;20468;-80
2021/12/19 09:59:09;;;;;;;5.90;3.20;;;8.70;98.30;;;;;;4139032;28;20576;-81
2021/12/19 10:01:13;;;;;;;6.80;3.27;;;8.70;98.30;;;;;;4135778;28;20473;-80
2021/12/19 10:03:17;;;;;;;7.33;2.73;;;8.70;98.30;;;;;;4131221;28;20472;-80
2021/12/19 10:05:22;;;;;;;9.60;3.40;;;8.70;98.30;;;;;;4137236;28;20476;-79
2021/12/19 10:07:28;;;;;;;10.70;3.23;;;8.70;98.30;;;;;;4136303;28;20474;-81
2021/12/19 10:09:31;;;;;;;12.00;3.80;;;8.70;98.30;;;;;;4135087;28;20497;-81
2021/12/19 10:11:46;;;;;;;11.80;3.63;;;8.70;98.30;;;;;;4136389;28;20863;-80
2021/12/19 10:13:49;;;;;;;7.43;3.63;;;8.80;98.30;;;;;;4137315;28;20479;-81
2021/12/19 10:15:52;;;;;;;8.93;3.37;;;8.80;98.30;;;;;;4129484;28;20868;-81
2021/12/19 10:18:08;;;;;;;12.67;3.13;;;8.80;98.30;;;;;;4135452;28;20497;-81
2021/12/19 10:20:17;;;;;;;5.17;3.03;;;8.80;98.30;;;;;;4133021;28;20476;-80
2021/12/19 10:22:31;;;;;;;7.20;3.10;;;8.80;98.30;;;;;;4138211;28;20473;-80
2021/12/19 10:24:35;;;;;;;5.80;3.03;;;8.80;98.30;;;;;;4127721;28;20475;-81
2021/12/19 10:26:44;;;;;;;8.23;3.20;;;8.80;98.30;;;;;;4132043;28;20465;-81
2021/12/19 10:28:52;;;;;;;8.10;3.00;;;8.90;98.30;;;;;;4129940;28;20998;-81
2021/12/19 10:30:55;;;;;;;16.93;3.70;;;8.80;98.30;;;;;;4129312;28;21196;-82
2021/12/19 10:33:06;;;;;;;7.20;3.10;;;8.80;98.30;;;;;;4133053;28;20547;-82
2021/12/19 10:35:18;;;;;;;8.23;3.27;;;8.80;98.30;;;;;;4134042;28;20463;-82
2021/12/19 10:37:33;;;;;;;13.93;3.60;;;8.80;98.30;;;;;;4135904;28;20473;-81
2021/12/19 10:39:38;;;;;;;11.67;3.27;;;8.80;98.30;;;;;;4128842;28;20557;-81
2021/12/19 10:41:42;;;;;;;14.47;3.70;;;8.90;98.30;;;;;;4132713;28;20618;-81
2021/12/19 10:43:56;;;;;;;12.03;3.60;;;8.90;98.30;;;;;;4131448;28;20855;-80
2021/12/19 10:46:01;;;;;;;6.50;2.83;;;8.90;98.30;;;;;;4133214;28;20487;-80
2021/12/19 10:48:27;;;;;;;13.30;3.53;;;8.90;98.30;;;;;;4133621;28;20550;-81
2021/12/19 10:50:42;;;;;;;10.63;3.20;;;8.80;98.30;;;;;;4126055;28;21079;-82
2021/12/19 10:52:45;;;;;;;9.53;3.10;;;8.90;98.30;;;;;;4126310;28;20537;-84
2021/12/19 10:55:01;;;;;;;4.97;3.00;;;8.90;98.30;;;;;;4132682;28;20746;-83
2021/12/19 10:57:08;;;;;;;12.17;3.50;;;8.90;98.30;;;;;;4132095;28;20474;-83
2021/12/19 10:59:14;;;;;;;9.37;3.00;;;8.90;98.30;;;;;;4133410;28;20481;-84
2021/12/19 11:01:25;;;;;;;9.23;3.40;;;8.90;98.30;;;;;;4130312;28;20525;-83
2021/12/19 11:03:40;;;;;;;10.93;3.70;;;8.90;98.30;;;;;;4133541;28;20474;-84
2021/12/19 11:05:44;;;;;;;6.43;2.83;;;8.90;98.30;;;;;;4133278;28;20468;-84
2021/12/19 11:08:02;;;;;;;9.43;2.97;;;8.90;98.30;;;;;;4135730;28;20520;-84
2021/12/19 11:10:26;;;;;;;7.33;3.13;;;8.90;98.30;;;;;;4130804;28;20483;-83
2021/12/19 11:12:30;;;;;;;15.63;3.33;;;8.90;98.30;;;;;;4132710;28;20532;-83
2021/12/19 11:14:37;;;;;;;7.97;3.10;;;8.90;98.30;;;;;;4132798;28;20480;-83
2021/12/19 11:16:41;;;;;;;9.40;3.43;;;8.90;98.30;;;;;;4133101;28;20482;-83
2021/12/19 11:18:45;;;;;;;13.20;3.67;;;9.00;98.30;;;;;;4132706;28;20570;-83
2021/12/19 11:20:48;;;;;;;9.37;3.33;;;9.00;98.30;;;;;;4130198;28;20537;-83
2021/12/19 11:22:53;;;;;;;14.80;3.83;;;9.00;98.30;;;;;;4131259;28;20511;-83
2021/12/19 11:24:58;;;;;;;8.37;3.80;;;9.00;98.30;;;;;;4133246;28;20502;-84
2021/12/19 11:27:03;;;;;;;14.93;4.77;;;9.00;98.30;;;;;;4128749;28;20878;-84
2021/12/19 11:29:07;;;;;;;10.83;3.90;;;9.00;98.30;;;;;;4123692;28;20544;-83
2021/12/19 11:31:17;;;;;;;7.53;3.70;;;9.00;98.30;;;;;;4133690;28;20489;-81
2021/12/19 11:33:34;;;;;;;10.40;3.10;;;9.00;98.30;;;;;;4132595;28;20557;-81
2021/12/19 11:35:44;;;;;;;11.93;3.37;;;9.00;98.30;;;;;;4131612;28;20467;-82